Time;durP1;ratioP1;P1;durP2;ratioP2;P2;SDS_P1;SDS_P2;PMS_P1;PMS_P2;Temp;Humidity;BMP_temperature;BMP_pressure;BME280_temperature;BME280_humidity;BME280_pressure;Samples;Min_cycle;Max_cycle;Signal;HPM_P1;HPM_P2
2022/08/09 00:01:47;;;;;;;4.38;3.67;;;;;;;17.14;84.73;96836.78;5019045;28;20210;-71
2022/08/09 00:04:15;;;;;;;5.50;3.67;;;;;;;17.31;82.76;96831.88;5018399;28;20240;-71
2022/08/09 00:06:41;;;;;;;4.97;4.05;;;;;;;17.21;82.37;96848.25;5018962;28;20276;-71
2022/08/09 00:09:08;;;;;;;6.35;3.95;;;;;;;17.18;83.43;96839.84;5018305;28;20206;-71
2022/08/09 00:11:35;;;;;;;5.50;4.07;;;;;;;17.10;84.31;96843.50;5017379;28;20267;-71
2022/08/09 00:14:02;;;;;;;5.60;4.32;;;;;;;16.98;85.08;96840.81;5017916;28;20277;-71
2022/08/09 00:16:28;;;;;;;6.00;4.38;;;;;;;16.88;86.34;96840.38;5018379;28;20201;-71
2022/08/09 00:18:55;;;;;;;6.65;4.45;;;;;;;17.08;84.89;96846.59;5018103;28;20217;-71
2022/08/09 00:21:22;;;;;;;10.30;4.50;;;;;;;16.92;86.02;96852.31;5018439;28;20206;-71
2022/08/09 00:23:49;;;;;;;5.57;4.20;;;;;;;16.90;85.24;96843.69;5017605;28;20230;-71
2022/08/09 00:26:16;;;;;;;4.90;3.83;;;;;;;17.04;84.83;96850.69;5018123;28;20198;-71
2022/08/09 00:28:42;;;;;;;5.25;4.03;;;;;;;16.90;85.65;96843.69;5018495;28;20577;-71
2022/08/09 00:31:09;;;;;;;6.65;4.30;;;;;;;16.82;86.23;96846.53;5018039;28;20220;-71
2022/08/09 00:33:35;;;;;;;6.25;3.67;;;;;;;16.96;84.86;96843.69;5017693;28;20234;-71
2022/08/09 00:36:02;;;;;;;5.70;4.00;;;;;;;17.03;85.08;96843.72;5018378;28;20288;-71
2022/08/09 00:38:30;;;;;;;6.63;4.40;;;;;;;17.00;85.20;96839.59;5017398;28;20229;-71
2022/08/09 00:40:56;;;;;;;6.40;3.75;;;;;;;16.93;85.22;96843.28;5018074;28;20220;-71
2022/08/09 00:43:23;;;;;;;8.48;4.28;;;;;;;16.73;86.38;96839.75;5017704;28;20802;-71
2022/08/09 00:45:50;;;;;;;6.38;4.00;;;;;;;16.87;84.67;96854.75;5017888;28;20231;-71
2022/08/09 00:48:16;;;;;;;7.07;3.80;;;;;;;16.75;83.86;96845.69;5017491;28;20202;-71
2022/08/09 00:50:43;;;;;;;7.68;4.10;;;;;;;16.78;84.85;96847.97;5017914;28;20961;-71
2022/08/09 00:53:11;;;;;;;4.82;3.80;;;;;;;16.59;85.36;96848.72;5014174;28;20800;-71
2022/08/09 00:55:41;;;;;;;7.15;4.40;;;;;;;16.62;85.84;96841.16;5017937;28;20209;-71
2022/08/09 00:58:07;;;;;;;7.32;4.22;;;;;;;16.40;86.99;96845.97;5017365;28;20236;-71
2022/08/09 01:00:35;;;;;;;8.00;4.18;;;;;;;16.33;88.17;96850.44;5017701;28;20214;-71
2022/08/09 01:03:11;;;;;;;8.50;4.10;;;;;;;16.56;86.68;96846.47;5016582;28;20230;-71
2022/08/09 01:05:43;;;;;;;5.68;4.03;;;;;;;16.63;85.52;96847.28;5017521;28;20212;-71
2022/08/09 01:08:15;;;;;;;4.55;3.80;;;;;;;16.59;84.71;96854.03;5017121;28;20924;-71
2022/08/09 01:10:53;;;;;;;6.25;4.10;;;;;;;16.55;85.93;96850.94;5017155;28;20225;-71
2022/08/09 01:13:31;;;;;;;7.28;4.55;;;;;;;16.56;86.77;96849.94;5017068;28;20221;-71
2022/08/09 01:16:00;;;;;;;4.97;3.92;;;;;;;16.36;88.65;96860.69;5017295;28;20209;-71
2022/08/09 01:18:31;;;;;;;5.75;4.55;;;;;;;16.50;88.18;96856.03;5016940;28;20264;-71
2022/08/09 01:21:17;;;;;;;8.13;4.32;;;;;;;16.54;87.37;96859.94;5016950;28;20232;-71
2022/08/09 01:23:55;;;;;;;6.75;4.65;;;;;;;16.60;87.71;96856.50;5016848;28;20225;-71
2022/08/09 01:26:41;;;;;;;8.55;4.70;;;;;;;16.62;87.46;96851.81;5017332;28;20205;-71
2022/08/09 01:29:10;;;;;;;7.38;4.53;;;;;;;16.50;87.45;96849.91;5016974;28;20201;-71
2022/08/09 01:31:38;;;;;;;7.60;4.60;;;;;;;16.64;86.72;96854.25;5016511;28;20226;-71
2022/08/09 01:34:10;;;;;;;8.23;4.63;;;;;;;16.70;86.16;96859.59;5016184;28;20225;-71
2022/08/09 01:36:40;;;;;;;5.80;4.57;;;;;;;16.43;87.19;96857.00;5016986;28;20280;-71
2022/08/09 01:39:07;;;;;;;6.10;5.00;;;;;;;16.24;87.77;96855.06;5015952;28;20237;-71
2022/08/09 01:41:40;;;;;;;8.30;4.68;;;;;;;16.17;89.02;96851.53;5017058;28;20206;-71
2022/08/09 01:44:07;;;;;;;10.45;5.10;;;;;;;16.42;87.36;96855.41;5016987;28;20229;-71
2022/08/09 01:46:37;;;;;;;7.38;4.88;;;;;;;16.24;88.63;96857.72;5016133;28;20213;-71
2022/08/09 01:49:06;;;;;;;6.63;4.93;;;;;;;16.11;89.73;96854.97;5016412;28;20212;-71
2022/08/09 01:51:35;;;;;;;6.13;4.43;;;;;;;16.12;89.09;96861.13;5017490;28;20206;-71
2022/08/09 01:54:04;;;;;;;5.20;4.28;;;;;;;16.22;88.44;96853.63;5013176;28;20221;-71
2022/08/09 01:56:33;;;;;;;8.98;5.63;;;;;;;16.11;89.07;96856.81;5016805;28;20209;-71
2022/08/09 01:59:06;;;;;;;6.28;4.70;;;;;;;16.11;88.96;96865.59;5017329;28;20857;-71
2022/08/09 02:01:35;;;;;;;5.93;4.70;;;;;;;16.14;89.08;96859.09;5017090;28;20241;-71
2022/08/09 02:04:05;;;;;;;6.80;5.15;;;;;;;16.21;88.55;96857.28;5015639;28;20824;-71
2022/08/09 02:09:19;;;;;;;6.07;5.13;;;;;;;16.11;89.99;96862.94;5017143;28;20332;-71
2022/08/09 02:11:46;;;;;;;9.80;5.13;;;;;;;16.10;89.26;96858.69;5017248;28;20212;-71
2022/08/09 02:14:16;;;;;;;8.25;4.88;;;;;;;15.92;91.46;96868.16;5012981;28;20237;-71
2022/08/09 02:16:44;;;;;;;9.55;5.15;;;;;;;15.86;92.99;96868.94;5016887;28;21085;-71
2022/08/09 02:19:10;;;;;;;12.48;5.00;;;;;;;15.89;92.70;96871.22;5016991;28;20253;-71
2022/08/09 02:21:41;;;;;;;7.18;5.07;;;;;;;16.04;91.49;96867.44;5016623;28;20206;-71
2022/08/09 02:24:12;;;;;;;8.02;5.40;;;;;;;16.15;90.56;96866.88;5016945;28;20232;-71
2022/08/09 02:26:40;;;;;;;6.60;5.32;;;;;;;16.02;90.18;96874.75;5017277;28;20783;-71
2022/08/09 02:29:14;;;;;;;7.90;5.28;;;;;;;16.00;91.73;96871.50;5017216;28;20202;-71
2022/08/09 02:31:45;;;;;;;9.80;5.82;;;;;;;15.97;92.66;96866.56;5017040;28;20206;-71
2022/08/09 02:34:14;;;;;;;7.00;5.22;;;;;;;15.91;92.02;96870.00;5017995;28;20236;-71
2022/08/09 02:36:44;;;;;;;8.98;5.53;;;;;;;15.93;92.08;96864.47;5020335;28;20213;-71
2022/08/09 02:39:15;;;;;;;11.10;5.57;;;;;;;15.99;92.24;96863.72;5020502;28;20249;-71
2022/08/09 02:41:44;;;;;;;8.07;5.63;;;;;;;15.98;92.00;96868.19;5020918;28;20214;-71
2022/08/09 02:44:15;;;;;;;10.02;5.63;;;;;;;16.19;91.11;96870.78;5019515;28;20229;-71
2022/08/09 02:46:44;;;;;;;8.95;6.03;;;;;;;16.06;91.76;96859.25;5019832;28;21145;-71
2022/08/09 02:49:14;;;;;;;6.90;4.97;;;;;;;16.10;91.42;96865.81;5021349;28;20209;-71
2022/08/09 02:51:44;;;;;;;6.53;5.32;;;;;;;15.99;92.14;96863.72;5019654;28;20210;-71
2022/08/09 02:54:13;;;;;;;9.80;5.85;;;;;;;16.01;92.46;96867.81;5015875;28;20225;-71
2022/08/09 02:56:42;;;;;;;6.13;4.95;;;;;;;15.99;92.58;96864.53;5020797;28;20202;-71
2022/08/09 02:59:13;;;;;;;9.43;6.20;;;;;;;16.10;91.70;96866.66;5021163;28;21089;-71
2022/08/09 03:01:41;;;;;;;8.13;5.63;;;;;;;16.00;91.85;96866.19;5019712;28;20263;-71
2022/08/09 03:04:11;;;;;;;8.65;5.60;;;;;;;15.96;92.02;96864.09;5018838;28;21183;-71
2022/08/09 03:06:40;;;;;;;7.43;5.60;;;;;;;15.85;92.13;96860.13;5021121;28;20209;-71
2022/08/09 03:09:08;;;;;;;7.68;5.70;;;;;;;15.93;91.94;96852.00;5020006;28;20205;-71
2022/08/09 03:11:35;;;;;;;11.77;5.82;;;;;;;15.79;92.77;96856.63;5019977;28;20212;-70
2022/08/09 03:14:02;;;;;;;11.13;5.45;;;;;;;15.77;92.79;96854.16;5019590;28;20658;-71
2022/08/09 03:16:30;;;;;;;10.88;5.80;;;;;;;15.84;92.49;96859.53;5019922;28;20206;-71
2022/08/09 03:18:58;;;;;;;7.63;5.28;;;;;;;15.82;92.63;96858.88;5020197;28;20228;-71
2022/08/09 03:21:27;;;;;;;9.68;6.32;;;;;;;15.90;92.20;96856.91;5019927;28;20213;-71
2022/08/09 03:23:54;;;;;;;10.60;5.65;;;;;;;15.79;92.11;96849.47;5018986;28;20226;-71
2022/08/09 03:26:21;;;;;;;8.50;5.75;;;;;;;15.78;92.83;96855.78;5019689;28;20675;-71
2022/08/09 03:28:49;;;;;;;10.60;5.53;;;;;;;15.82;92.90;96851.72;5020062;28;20210;-71
2022/08/09 03:31:16;;;;;;;8.70;5.80;;;;;;;15.82;92.01;96850.91;5019108;28;20300;-71
2022/08/09 03:33:44;;;;;;;9.60;6.00;;;;;;;15.82;91.66;96850.91;5018668;28;20234;-71
2022/08/09 03:36:11;;;;;;;9.98;5.38;;;;;;;15.73;91.75;96854.72;5019325;28;20210;-71
2022/08/09 03:38:40;;;;;;;7.25;5.32;;;;;;;15.72;92.32;96855.75;5019812;28;20228;-71
2022/08/09 03:41:07;;;;;;;7.80;5.57;;;;;;;15.54;92.76;96861.56;5019076;28;20216;-71
2022/08/09 03:43:33;;;;;;;8.13;5.65;;;;;;;15.69;91.77;96859.59;5017961;28;20233;-71
2022/08/09 03:46:00;;;;;;;7.35;5.20;;;;;;;15.72;90.81;96861.91;5019130;28;20611;-71
2022/08/09 03:48:30;;;;;;;8.68;5.90;;;;;;;15.76;90.66;96864.97;5018907;28;20201;-71
2022/08/09 03:50:57;;;;;;;8.15;5.32;;;;;;;15.67;90.27;96863.47;5018804;28;20260;-71
2022/08/09 03:53:24;;;;;;;8.80;5.88;;;;;;;15.61;90.05;96870.38;5014805;28;20217;-71
2022/08/09 03:55:53;;;;;;;10.50;5.65;;;;;;;15.55;90.83;96871.13;5019449;28;20210;-71
2022/08/09 03:58:20;;;;;;;8.50;5.97;;;;;;;15.51;91.49;96869.06;5018905;28;20255;-71
2022/08/09 04:00:48;;;;;;;8.27;4.80;;;;;;;15.54;91.08;96869.53;5018463;28;20206;-73
2022/08/09 04:03:16;;;;;;;9.63;5.55;;;;;;;15.39;91.55;96870.63;5017834;28;20233;-73
2022/08/09 04:05:43;;;;;;;7.25;4.97;;;;;;;15.29;91.16;96870.94;5018733;28;20210;-75
2022/08/09 04:08:09;;;;;;;9.77;5.53;;;;;;;15.11;92.10;96876.81;5018878;28;20209;-72
2022/08/09 04:10:36;;;;;;;8.35;5.68;;;;;;;15.08;92.73;96879.88;5017862;28;20214;-74
2022/08/09 04:13:08;;;;;;;8.65;5.75;;;;;;;15.18;92.91;96878.53;5018029;28;21265;-74
2022/08/09 04:15:35;;;;;;;14.80;5.95;;;;;;;15.15;93.05;96888.72;5019507;28;20198;-77
2022/08/09 04:18:02;;;;;;;7.70;5.40;;;;;;;15.20;93.73;96889.81;5018362;28;20212;-73
2022/08/09 04:20:28;;;;;;;9.07;6.03;;;;;;;15.32;92.84;96893.63;5018466;28;20249;-73
2022/08/09 04:22:55;;;;;;;8.48;6.22;;;;;;;15.42;92.47;96897.59;5018143;28;20209;-72
2022/08/09 04:25:22;;;;;;;10.02;6.03;;;;;;;15.33;92.15;96905.91;5018752;28;20198;-76
2022/08/09 04:27:48;;;;;;;10.05;6.40;;;;;;;15.36;92.29;96897.53;5018952;28;20214;-72
2022/08/09 04:30:18;;;;;;;8.88;5.65;;;;;;;15.49;92.04;96908.28;5018033;28;20210;-73
2022/08/09 04:32:45;;;;;;;11.95;6.00;;;;;;;15.49;92.37;96905.63;5017718;28;20288;-73
2022/08/09 04:35:13;;;;;;;10.88;5.75;;;;;;;15.60;90.95;96918.41;5019153;28;20205;-73
2022/08/09 04:37:40;;;;;;;7.47;5.63;;;;;;;15.28;92.45;96918.91;5018148;28;20212;-75
2022/08/09 04:40:08;;;;;;;9.07;5.72;;;;;;;15.46;92.34;96925.41;5018484;28;20313;-73
2022/08/09 04:42:35;;;;;;;9.95;6.03;;;;;;;15.49;91.72;96921.56;5017194;28;20663;-72
2022/08/09 04:45:02;;;;;;;8.55;5.43;;;;;;;15.52;90.76;96923.84;5016952;28;20232;-75
2022/08/09 04:47:30;;;;;;;17.13;5.35;;;;;;;15.51;91.80;96916.91;5018624;28;20202;-75
2022/08/09 04:49:57;;;;;;;8.50;6.07;;;;;;;15.47;91.26;96916.44;5019031;28;20225;-75
2022/08/09 04:52:26;;;;;;;11.82;5.43;;;;;;;15.58;91.60;96918.59;5018074;28;20759;-75
2022/08/09 04:54:53;;;;;;;15.95;5.63;;;;;;;15.56;91.88;96927.78;5018372;28;20230;-73
2022/08/09 04:57:20;;;;;;;9.15;6.03;;;;;;;15.37;93.20;96926.56;5019527;28;20220;-73
2022/08/09 04:59:46;;;;;;;11.05;6.25;;;;;;;15.44;92.66;96931.94;5020472;28;20233;-72
2022/08/09 05:02:13;;;;;;;11.93;6.00;;;;;;;15.54;92.72;96929.78;5020429;28;20305;-73
2022/08/09 05:04:41;;;;;;;10.85;5.85;;;;;;;15.60;92.59;96927.19;5018294;28;20721;-73
2022/08/09 05:07:08;;;;;;;9.32;5.82;;;;;;;15.65;92.29;96924.78;5019537;28;20202;-73
2022/08/09 05:09:34;;;;;;;8.65;5.43;;;;;;;15.83;91.32;96933.09;5019428;28;20213;-73
2022/08/09 05:12:01;;;;;;;7.53;5.60;;;;;;;15.90;91.07;96928.69;5019841;28;20316;-74
2022/08/09 05:14:30;;;;;;;7.65;5.53;;;;;;;15.94;91.35;96930.75;5019313;28;20234;-72
2022/08/09 05:16:58;;;;;;;7.80;5.40;;;;;;;16.04;90.37;96931.22;5019561;28;20232;-75
2022/08/09 05:19:26;;;;;;;8.63;5.50;;;;;;;16.19;90.23;96939.94;5018771;28;20232;-73
2022/08/09 05:21:53;;;;;;;11.18;5.22;;;;;;;16.28;91.01;96937.97;5019076;28;20206;-75
2022/08/09 05:24:20;;;;;;;8.48;5.30;;;;;;;16.34;90.90;96940.66;5018446;28;20886;-74
2022/08/09 05:26:46;;;;;;;7.53;5.20;;;;;;;16.56;89.48;96943.06;5019603;28;20340;-73
2022/08/09 05:29:18;;;;;;;12.23;5.38;;;;;;;16.70;88.21;96943.94;5018683;28;20225;-73
2022/08/09 05:31:45;;;;;;;7.68;4.90;;;;;;;16.86;87.41;96941.75;5018643;28;20202;-76
2022/08/09 05:34:11;;;;;;;9.85;5.03;;;;;;;17.03;88.40;96947.56;5018650;28;20222;-73
2022/08/09 05:36:38;;;;;;;7.10;4.97;;;;;;;17.11;88.79;96948.22;5019047;28;20205;-74
2022/08/09 05:39:05;;;;;;;7.63;5.18;;;;;;;17.25;87.34;96955.25;5018887;28;20256;-75
2022/08/09 05:41:32;;;;;;;7.45;4.97;;;;;;;17.24;86.46;96958.91;5020480;28;20213;-74
2022/08/09 05:43:58;;;;;;;7.97;5.47;;;;;;;17.43;88.53;96953.66;5020088;28;20221;-73
2022/08/09 05:46:25;;;;;;;6.38;4.93;;;;;;;17.58;87.67;96958.81;5019499;28;20201;-73
2022/08/09 05:48:51;;;;;;;6.15;4.35;;;;;;;17.56;84.93;96958.19;5019183;28;20198;-73
2022/08/09 05:51:18;;;;;;;7.18;4.78;;;;;;;17.68;84.21;96961.91;5019858;28;20198;-75
2022/08/09 05:53:45;;;;;;;6.72;4.53;;;;;;;17.83;83.79;96961.53;5017866;28;20225;-74
2022/08/09 05:56:12;;;;;;;13.48;4.97;;;;;;;17.95;83.51;96959.06;5019117;28;20296;-72
2022/08/09 05:58:39;;;;;;;7.25;4.50;;;;;;;17.94;83.51;96965.44;5020667;28;20232;-72
2022/08/09 06:01:05;;;;;;;7.40;4.40;;;;;;;17.97;82.74;96967.66;5020566;28;20202;-74
2022/08/09 06:03:32;;;;;;;7.45;4.45;;;;;;;18.13;82.66;96953.94;5019884;28;20706;-72
2022/08/09 06:05:58;;;;;;;5.38;4.18;;;;;;;18.29;83.25;96961.53;5019628;28;20608;-75
2022/08/09 06:08:25;;;;;;;8.48;4.88;;;;;;;18.23;81.51;96962.34;5021452;28;20198;-74
2022/08/09 06:10:52;;;;;;;9.65;4.30;;;;;;;18.30;80.67;96969.34;5024201;28;20213;-71
2022/08/09 06:13:21;;;;;;;7.32;4.30;;;;;;;18.41;82.12;96961.50;5019836;28;20232;-76
2022/08/09 06:15:48;;;;;;;7.95;4.43;;;;;;;18.53;82.15;96969.72;5017855;28;20206;-76
2022/08/09 06:18:14;;;;;;;5.53;4.05;;;;;;;18.47;81.13;96963.38;5019773;28;20225;-73
2022/08/09 06:20:41;;;;;;;4.78;4.05;;;;;;;18.74;79.85;96970.28;5019831;28;20261;-75
2022/08/09 06:23:07;;;;;;;5.78;3.92;;;;;;;18.84;79.32;96973.34;5018933;28;20249;-76
2022/08/09 06:25:34;;;;;;;7.03;3.92;;;;;;;18.90;77.11;96972.47;5019481;28;20205;-73
2022/08/09 06:28:00;;;;;;;8.13;4.05;;;;;;;18.92;76.42;96975.78;5019632;28;20202;-73
2022/08/09 06:30:28;;;;;;;7.05;4.13;;;;;;;19.09;75.88;96977.81;5019488;28;20249;-73
2022/08/09 06:32:55;;;;;;;6.13;3.72;;;;;;;19.00;75.42;96978.22;5019271;28;20264;-73
2022/08/09 06:35:21;;;;;;;5.07;3.58;;;;;;;19.13;75.34;96968.34;5020242;28;20208;-74
2022/08/09 06:37:48;;;;;;;5.80;3.58;;;;;;;19.08;74.32;96970.81;5019118;28;20202;-73
2022/08/09 06:40:14;;;;;;;6.28;3.92;;;;;;;19.26;72.26;96972.81;5018896;28;20522;-73
2022/08/09 06:42:41;;;;;;;9.45;3.72;;;;;;;19.35;75.39;96968.88;5015677;28;20206;-72
2022/08/09 06:45:09;;;;;;;7.57;3.80;;;;;;;19.49;74.70;96971.25;5018136;28;20202;-76
2022/08/09 06:47:37;;;;;;;8.82;4.13;;;;;;;19.68;74.38;96968.44;5018716;28;20202;-73
2022/08/09 06:50:04;;;;;;;8.95;4.13;;;;;;;19.69;73.08;96986.13;5019211;28;20209;-73
2022/08/09 06:52:30;;;;;;;6.43;3.78;;;;;;;19.78;73.47;96982.16;5018678;28;20296;-76
2022/08/09 06:54:57;;;;;;;6.13;3.63;;;;;;;19.91;72.99;96974.09;5016300;28;20217;-75
2022/08/09 06:57:24;;;;;;;5.22;3.65;;;;;;;20.05;73.51;96980.97;5018667;28;20629;-73
2022/08/09 06:59:51;;;;;;;6.35;4.05;;;;;;;20.20;74.26;96981.50;5018346;28;20229;-76
2022/08/09 07:02:17;;;;;;;5.72;3.50;;;;;;;20.13;73.89;96987.94;5018183;28;20737;-77
2022/08/09 07:04:45;;;;;;;4.72;3.50;;;;;;;20.44;73.35;96986.00;5018783;28;20240;-74
2022/08/09 07:07:11;;;;;;;6.53;3.80;;;;;;;20.15;71.17;96986.66;5019817;28;20590;-76
2022/08/09 07:09:38;;;;;;;7.53;4.00;;;;;;;20.34;71.25;96996.38;5019133;28;20681;-74
2022/08/09 07:12:05;;;;;;;5.30;3.38;;;;;;;20.47;71.89;96989.06;5018202;28;20294;-73
2022/08/09 07:14:32;;;;;;;6.63;3.55;;;;;;;20.45;70.30;97003.69;5017759;28;20226;-75
2022/08/09 07:16:58;;;;;;;8.63;3.80;;;;;;;20.62;70.07;96989.53;5018960;28;20607;-74
2022/08/09 07:19:25;;;;;;;4.82;3.42;;;;;;;20.90;72.22;96990.72;5017959;28;20222;-75
2022/08/09 07:21:53;;;;;;;4.97;3.47;;;;;;;20.93;70.43;96987.59;5018722;28;20300;-73
2022/08/09 07:24:19;;;;;;;3.83;3.20;;;;;;;21.07;70.04;96989.06;5018206;28;20241;-74
2022/08/09 07:26:46;;;;;;;6.82;3.47;;;;;;;21.14;68.86;96989.00;5018852;28;20212;-77
2022/08/09 07:29:12;;;;;;;5.18;3.38;;;;;;;21.26;71.11;96990.72;5018359;28;20297;-73
2022/08/09 07:31:39;;;;;;;4.85;3.40;;;;;;;21.42;67.71;96991.94;5018805;28;20205;-74
2022/08/09 07:34:07;;;;;;;4.68;3.25;;;;;;;21.48;66.67;97002.59;5017633;28;20736;-74
2022/08/09 07:36:34;;;;;;;3.25;2.95;;;;;;;21.73;66.54;96998.78;5018485;28;20206;-77
2022/08/09 07:39:04;;;;;;;5.18;3.65;;;;;;;21.84;65.69;96998.00;5018506;28;20209;-70
2022/08/09 07:41:30;;;;;;;4.70;3.30;;;;;;;21.89;64.91;97005.38;5018114;28;20214;-70
2022/08/09 07:43:57;;;;;;;5.68;3.25;;;;;;;22.04;64.93;96993.97;5017230;28;20326;-72
2022/08/09 07:46:24;;;;;;;7.97;3.60;;;;;;;22.19;64.60;96993.56;5018043;28;20202;-71
2022/08/09 07:48:51;;;;;;;5.55;3.58;;;;;;;22.26;64.05;96988.91;5018525;28;20225;-71
2022/08/09 07:51:17;;;;;;;3.70;3.03;;;;;;;22.41;62.27;96983.91;5017526;28;20202;-71
2022/08/09 07:53:44;;;;;;;5.38;3.30;;;;;;;22.52;60.75;96986.63;5013495;28;21075;-71
2022/08/09 07:56:12;;;;;;;4.07;2.80;;;;;;;22.52;62.71;96991.19;5016416;28;20205;-71
2022/08/09 07:58:38;;;;;;;2.97;2.50;;;;;;;22.60;59.85;96991.63;5016626;28;20391;-71
2022/08/09 08:01:05;;;;;;;4.57;2.90;;;;;;;22.70;60.88;96994.56;5016969;28;20222;-71
2022/08/09 08:03:32;;;;;;;2.83;2.53;;;;;;;22.98;61.81;96992.78;5016944;28;20226;-71
2022/08/09 08:05:59;;;;;;;3.03;2.75;;;;;;;23.13;62.46;96986.94;5016209;28;20209;-70
2022/08/09 08:08:26;;;;;;;7.18;2.90;;;;;;;23.13;61.53;96987.78;5018144;28;20220;-71
2022/08/09 08:10:52;;;;;;;3.28;2.85;;;;;;;23.25;58.18;96987.75;5019003;28;20581;-71
2022/08/09 08:13:20;;;;;;;4.40;3.05;;;;;;;23.43;60.62;96989.22;5017036;28;20240;-72
2022/08/09 08:15:46;;;;;;;4.57;2.95;;;;;;;23.42;59.04;96990.28;5013900;28;20202;-71
2022/08/09 08:18:13;;;;;;;2.67;2.47;;;;;;;23.53;58.21;96992.09;5017707;28;20765;-71
2022/08/09 08:20:39;;;;;;;4.22;2.58;;;;;;;23.63;58.28;96996.88;5017961;28;20716;-71
2022/08/09 08:23:06;;;;;;;4.35;2.70;;;;;;;23.67;56.79;96998.03;5016870;28;20676;-71
2022/08/09 08:25:34;;;;;;;9.10;3.03;;;;;;;23.60;57.81;96992.78;5017783;28;20208;-71
2022/08/09 08:28:00;;;;;;;4.45;2.25;;;;;;;23.91;56.97;96997.72;5017732;28;20201;-70
2022/08/09 08:30:28;;;;;;;3.75;2.78;;;;;;;23.92;56.59;97002.06;5017105;28;20213;-72
2022/08/09 08:32:55;;;;;;;5.22;3.03;;;;;;;24.07;58.50;96994.22;5015437;28;20510;-72
2022/08/09 08:35:22;;;;;;;4.28;2.80;;;;;;;24.11;60.98;96995.41;5018956;28;20317;-71
2022/08/09 08:37:48;;;;;;;2.97;2.47;;;;;;;23.92;57.52;96993.16;5017947;28;20672;-71
2022/08/09 08:40:15;;;;;;;3.08;2.70;;;;;;;23.92;55.93;97000.16;5017309;28;20415;-72
2022/08/09 08:42:42;;;;;;;10.65;2.90;;;;;;;23.98;56.89;96985.75;5016538;28;20210;-72
2022/08/09 08:45:11;;;;;;;3.53;2.50;;;;;;;24.43;56.58;96988.44;5015330;28;20202;-71
2022/08/09 08:47:40;;;;;;;3.83;2.58;;;;;;;24.52;56.67;96986.97;5016672;28;20720;-72
2022/08/09 08:50:08;;;;;;;5.35;2.47;;;;;;;24.36;54.48;96990.44;5016248;28;20238;-71
2022/08/09 08:52:34;;;;;;;3.55;2.47;;;;;;;24.46;56.46;96985.25;5016549;28;20206;-71
2022/08/09 08:55:01;;;;;;;3.13;2.42;;;;;;;24.50;55.20;96987.19;5015605;28;20222;-71
2022/08/09 08:57:28;;;;;;;3.17;2.03;;;;;;;24.53;57.55;96986.72;5016084;28;20212;-71
2022/08/09 08:59:55;;;;;;;4.50;2.10;;;;;;;24.77;53.88;96986.31;5016328;28;20229;-71
2022/08/09 09:02:25;;;;;;;3.08;2.53;;;;;;;24.72;52.11;96990.81;5015168;28;20445;-72
2022/08/09 09:04:55;;;;;;;2.88;2.10;;;;;;;24.61;52.40;96991.69;5015320;28;20217;-71
2022/08/09 09:07:23;;;;;;;2.88;2.05;;;;;;;24.68;51.33;96993.16;5015598;28;20201;-70
2022/08/09 09:09:52;;;;;;;3.65;1.63;;;;;;;24.98;48.34;96996.31;5015467;28;20198;-71
2022/08/09 09:12:21;;;;;;;3.25;2.03;;;;;;;24.90;50.21;96991.34;5016663;28;20212;-71
2022/08/09 09:14:49;;;;;;;3.25;2.03;;;;;;;25.20;49.93;96986.38;5015809;28;20789;-71
2022/08/09 09:17:16;;;;;;;3.67;2.08;;;;;;;25.36;48.48;96994.44;5012596;28;20237;-70
2022/08/09 09:19:43;;;;;;;3.35;1.88;;;;;;;25.47;48.12;96996.22;5016684;28;20229;-70
2022/08/09 09:22:13;;;;;;;2.45;2.00;;;;;;;25.55;49.88;96997.66;5015199;28;20209;-71
2022/08/09 09:24:42;;;;;;;3.92;2.03;;;;;;;25.41;47.96;96993.69;5016796;28;20275;-70
2022/08/09 09:27:10;;;;;;;3.13;1.92;;;;;;;25.46;47.03;96991.06;5014977;28;20229;-71
2022/08/09 09:29:40;;;;;;;5.07;1.90;;;;;;;25.68;47.16;96991.88;5014964;28;20215;-71
2022/08/09 09:32:07;;;;;;;3.97;1.83;;;;;;;25.58;47.89;96989.84;5014898;28;20202;-71
2022/08/09 09:34:34;;;;;;;3.58;1.88;;;;;;;25.50;49.40;96990.28;5012987;28;20714;-70
2022/08/09 09:37:05;;;;;;;2.13;1.95;;;;;;;25.53;47.02;96984.38;5013289;28;20204;-70
2022/08/09 09:39:33;;;;;;;2.92;2.13;;;;;;;25.79;46.95;96980.13;5015190;28;20202;-71
2022/08/09 09:42:04;;;;;;;3.20;1.90;;;;;;;25.73;47.63;96991.97;5015917;28;20213;-70
2022/08/09 09:44:32;;;;;;;4.90;2.13;;;;;;;25.83;49.30;96992.88;5015387;28;20230;-70
2022/08/09 09:47:06;;;;;;;2.28;1.90;;;;;;;25.94;46.08;96983.78;5015660;28;20214;-70
2022/08/09 09:49:33;;;;;;;2.58;1.90;;;;;;;25.84;45.08;96989.91;5015564;28;20729;-70
2022/08/09 09:52:02;;;;;;;2.63;2.05;;;;;;;25.90;45.57;96983.50;5015847;28;20206;-70
2022/08/09 09:54:37;;;;;;;3.08;1.95;;;;;;;25.99;45.47;96987.38;5013545;28;20233;-70
2022/08/09 09:57:15;;;;;;;5.15;1.83;;;;;;;25.85;45.74;96983.44;5016156;28;20205;-71
2022/08/09 09:59:42;;;;;;;4.60;2.13;;;;;;;25.87;46.41;96973.19;5016800;28;20201;-72
2022/08/09 10:02:09;;;;;;;2.72;2.05;;;;;;;25.90;45.12;96979.97;5016652;28;20205;-71
2022/08/09 10:04:36;;;;;;;3.78;2.03;;;;;;;25.79;44.17;96975.56;5015936;28;20600;-70
2022/08/09 10:07:03;;;;;;;4.00;1.58;;;;;;;26.05;46.22;96978.25;5016381;28;20213;-70
2022/08/09 10:09:46;;;;;;;2.92;2.00;;;;;;;26.47;46.11;96973.78;5016540;28;20206;-70
2022/08/09 10:12:22;;;;;;;2.42;1.80;;;;;;;26.52;44.86;96976.53;5016507;28;20248;-71
2022/08/09 10:14:49;;;;;;;4.13;1.80;;;;;;;26.38;41.17;96979.94;5016645;28;20741;-71
2022/08/09 10:17:18;;;;;;;2.35;1.70;;;;;;;26.51;42.21;96981.16;5013866;28;20217;-70
2022/08/09 10:19:44;;;;;;;3.70;1.70;;;;;;;26.43;41.03;96983.50;5016279;28;20287;-71
2022/08/09 10:22:11;;;;;;;4.40;1.60;;;;;;;26.70;40.84;96979.66;5016836;28;20221;-70
2022/08/09 10:24:39;;;;;;;8.43;1.80;;;;;;;26.61;41.73;96975.78;5016591;28;20222;-71
2022/08/09 10:27:07;;;;;;;2.05;1.60;;;;;;;26.76;42.21;96975.91;5015904;28;20202;-70
2022/08/09 10:29:34;;;;;;;1.80;1.42;;;;;;;26.46;41.12;96985.69;5016451;28;20217;-71
2022/08/09 10:32:01;;;;;;;4.85;1.80;;;;;;;26.70;40.21;96979.66;5015181;28;20746;-71
2022/08/09 10:34:29;;;;;;;2.92;1.75;;;;;;;26.84;40.34;96974.63;5014477;28;21053;-71
2022/08/09 10:36:56;;;;;;;5.47;1.40;;;;;;;26.75;41.70;96966.16;5016507;28;20202;-71
2022/08/09 10:39:24;;;;;;;2.28;1.83;;;;;;;26.91;40.52;96969.78;5016898;28;20209;-71
2022/08/09 10:41:51;;;;;;;2.05;1.58;;;;;;;26.85;40.95;96965.44;5015604;28;20222;-70
2022/08/09 10:44:22;;;;;;;3.95;1.55;;;;;;;27.11;40.80;96970.75;5015550;28;20272;-70
2022/08/09 10:47:13;;;;;;;3.33;1.58;;;;;;;27.20;41.70;96969.16;5017008;28;20566;-70
2022/08/09 10:49:46;;;;;;;1.98;1.48;;;;;;;27.11;39.77;96966.16;5015555;28;20213;-70
2022/08/09 10:52:29;;;;;;;3.15;1.50;;;;;;;27.35;40.41;96970.06;5015609;28;20308;-71
2022/08/09 10:54:55;;;;;;;2.70;1.50;;;;;;;27.07;38.21;96960.72;5017624;28;20230;-70
2022/08/09 10:57:34;;;;;;;3.33;1.30;;;;;;;27.35;39.68;96972.75;5019855;28;20206;-71
2022/08/09 11:00:38;;;;;;;2.67;1.33;;;;;;;27.42;38.20;96957.09;5019588;28;20209;-71
2022/08/09 11:03:20;;;;;;;6.40;1.60;;;;;;;27.43;40.24;96966.88;5018731;28;20241;-71
2022/08/09 11:06:23;;;;;;;3.30;1.25;;;;;;;27.47;38.84;96967.97;5019535;28;20224;-71
2022/08/09 11:08:50;;;;;;;4.47;1.20;;;;;;;27.45;38.25;96959.28;5019801;28;21076;-70
2022/08/09 11:11:17;;;;;;;2.53;1.48;;;;;;;27.60;38.62;96964.78;5018780;28;20618;-70
2022/08/09 11:13:44;;;;;;;2.92;1.50;;;;;;;27.35;42.40;96958.41;5018839;28;20591;-71
2022/08/09 11:16:35;;;;;;;2.55;1.50;;;;;;;27.78;37.34;96959.69;5017825;28;20201;-70
2022/08/09 11:19:03;;;;;;;4.30;1.30;;;;;;;27.80;38.99;96954.00;5019339;28;20212;-71
2022/08/09 11:21:52;;;;;;;2.05;1.42;;;;;;;27.80;37.75;96952.13;5018593;28;20238;-70
2022/08/09 11:24:20;;;;;;;3.00;1.48;;;;;;;27.15;38.36;96951.03;5019175;28;20218;-70
2022/08/09 11:26:49;;;;;;;6.03;1.30;;;;;;;27.42;38.13;96951.69;5019289;28;20227;-71
2022/08/09 11:29:51;;;;;;;2.38;1.50;;;;;;;27.91;37.50;96961.06;5018778;28;20213;-71
2022/08/09 11:32:42;;;;;;;3.20;1.38;;;;;;;27.99;36.85;96947.00;5018042;28;20208;-70
2022/08/09 11:35:14;;;;;;;4.78;1.40;;;;;;;27.73;36.52;96964.28;5019149;28;20210;-71
2022/08/09 11:37:41;;;;;;;3.78;1.65;;;;;;;27.78;37.90;96953.47;5018901;28;20282;-70
2022/08/09 11:40:10;;;;;;;3.00;1.30;;;;;;;27.85;36.71;96960.25;5019113;28;20264;-70
2022/08/09 11:42:45;;;;;;;2.08;1.45;;;;;;;27.92;36.94;96947.25;5017249;28;21268;-70